createdAt,value
2023-04-03T00:00:15.809Z,2.72
2023-04-03T00:00:33.655Z,2.72
2023-04-03T00:00:58.523Z,2.72
2023-04-03T00:01:31.269Z,2.61
2023-04-03T00:02:03.213Z,2.61
2023-04-03T00:02:35.203Z,2.61
2023-04-03T00:03:07.204Z,2.50
2023-04-03T00:03:39.215Z,2.50
2023-04-03T00:04:11.596Z,2.50
2023-04-03T00:04:34.572Z,2.50
2023-04-03T00:04:56.852Z,2.50
2023-04-03T00:05:30.997Z,2.50
2023-04-03T00:06:03.268Z,2.50
2023-04-03T00:06:35.025Z,2.50
2023-04-03T00:07:06.962Z,2.50
2023-04-03T00:07:38.925Z,2.50
2023-04-03T00:08:11.075Z,2.38
2023-04-03T00:08:34.066Z,2.38
2023-04-03T00:08:56.460Z,2.38
2023-04-03T00:09:30.877Z,2.38
2023-04-03T00:10:02.488Z,2.38
2023-04-03T00:10:35.497Z,2.38
2023-04-03T00:11:07.995Z,2.38
2023-04-03T00:11:39.086Z,2.38
2023-04-03T00:12:10.945Z,2.38
2023-04-03T00:12:33.636Z,2.38
2023-04-03T00:12:55.922Z,2.38
2023-04-03T00:13:31.272Z,2.38
2023-04-03T00:14:02.952Z,2.27
2023-04-03T00:14:35.069Z,2.27
2023-04-03T00:15:07.154Z,2.27
2023-04-03T00:15:39.267Z,2.27
2023-04-03T00:16:10.879Z,2.27
2023-04-03T00:16:33.830Z,2.27
2023-04-03T00:16:56.372Z,2.27
2023-04-03T00:17:31.269Z,2.27
2023-04-03T00:18:03.089Z,2.27
2023-04-03T00:18:35.101Z,2.27
2023-04-03T00:19:06.938Z,2.27
2023-04-03T00:19:39.343Z,2.27
2023-04-03T00:20:10.823Z,2.27
2023-04-03T00:20:33.646Z,2.27
2023-04-03T00:20:56.666Z,2.27
2023-04-03T00:21:31.118Z,2.27
2023-04-03T00:22:03.367Z,2.22
2023-04-03T00:22:34.854Z,2.22
2023-04-03T00:23:07.240Z,2.22
2023-04-03T00:23:39.004Z,2.22
2023-04-03T00:24:11.014Z,2.22
2023-04-03T00:24:34.010Z,2.22
2023-04-03T00:24:57.549Z,2.22
2023-04-03T00:25:31.266Z,2.22
2023-04-03T00:26:03.520Z,2.22
2023-04-03T00:26:35.199Z,2.22
2023-04-03T00:27:06.852Z,2.22
2023-04-03T00:27:39.134Z,2.22
2023-04-03T00:28:10.857Z,2.22
2023-04-03T00:28:33.756Z,2.22
2023-04-03T00:28:58.283Z,2.22
2023-04-03T00:29:31.183Z,2.22
2023-04-03T00:30:03.043Z,2.22
2023-04-03T00:30:35.100Z,2.22
2023-04-03T00:31:06.927Z,2.22
2023-04-03T00:31:39.180Z,2.22
2023-04-03T00:32:11.082Z,2.22
2023-04-03T00:32:34.774Z,2.22
2023-04-03T00:32:59.315Z,2.22
2023-04-03T00:33:32.468Z,2.22
2023-04-03T00:34:02.883Z,2.22
2023-04-03T00:34:35.556Z,2.22
2023-04-03T00:35:06.937Z,2.22
2023-04-03T00:35:40.455Z,2.11
2023-04-03T00:36:11.289Z,2.11
2023-04-03T00:36:33.923Z,2.11
2023-04-03T00:36:56.376Z,2.11
2023-04-03T00:37:31.220Z,2.11
2023-04-03T00:38:03.275Z,2.11
2023-04-03T00:38:34.864Z,2.11
2023-04-03T00:39:07.116Z,2.11
2023-04-03T00:39:39.065Z,2.11
2023-04-03T00:40:11.239Z,2.11
2023-04-03T00:40:35.792Z,2.11
2023-04-03T00:40:58.052Z,2.00
2023-04-03T00:41:31.120Z,2.00
2023-04-03T00:42:03.215Z,2.00
2023-04-03T00:42:35.094Z,2.00
2023-04-03T00:43:07.090Z,2.00
2023-04-03T00:43:39.207Z,2.00
2023-04-03T00:44:10.849Z,2.00
2023-04-03T00:44:34.250Z,2.00
2023-04-03T00:44:56.634Z,2.00
2023-04-03T00:45:31.497Z,2.00
2023-04-03T00:46:02.964Z,2.00
2023-04-03T00:46:35.246Z,2.00
2023-04-03T00:47:07.162Z,2.00
2023-04-03T00:47:39.004Z,2.00
2023-04-03T00:48:10.970Z,2.00
2023-04-03T00:48:34.402Z,2.00
2023-04-03T00:48:56.904Z,2.00
2023-04-03T00:49:31.294Z,2.00
2023-04-03T00:50:03.232Z,2.00
2023-04-03T00:50:35.197Z,2.00
2023-04-03T00:51:07.010Z,2.00
2023-04-03T00:51:39.243Z,2.00
2023-04-03T00:52:11.124Z,2.00
2023-04-03T00:52:33.926Z,2.00
2023-04-03T00:52:56.269Z,2.11
2023-04-03T00:53:31.151Z,2.11
2023-04-03T00:54:03.477Z,2.11
2023-04-03T00:54:35.077Z,2.11
2023-04-03T00:55:07.219Z,2.11
2023-04-03T00:55:38.864Z,2.11
2023-04-03T00:56:10.869Z,2.11
2023-04-03T00:56:33.660Z,2.11
2023-04-03T00:56:56.050Z,2.11
2023-04-03T00:57:31.197Z,2.11
2023-04-03T00:58:03.931Z,2.11
2023-04-03T00:58:34.961Z,2.11
2023-04-03T00:59:07.662Z,2.11
2023-04-03T00:59:39.004Z,2.11
2023-04-03T01:00:11.120Z,2.00
2023-04-03T01:00:34.272Z,2.00
2023-04-03T01:00:57.978Z,2.00
2023-04-03T01:01:31.032Z,2.00
2023-04-03T01:02:05.301Z,2.00
2023-04-03T01:02:35.690Z,2.00
2023-04-03T01:03:07.152Z,2.00
2023-04-03T01:03:39.444Z,1.88
2023-04-03T01:04:11.247Z,1.88
2023-04-03T01:04:34.241Z,1.88
2023-04-03T01:04:56.373Z,1.88
2023-04-03T01:05:31.118Z,1.88
2023-04-03T01:06:05.573Z,1.88
2023-04-03T01:06:35.241Z,1.88
2023-04-03T01:07:07.224Z,1.88
2023-04-03T01:07:39.095Z,1.77
2023-04-03T01:08:10.839Z,1.77
2023-04-03T01:08:33.733Z,1.77
2023-04-03T01:08:56.191Z,1.77
2023-04-03T01:09:31.208Z,1.77
2023-04-03T01:10:02.779Z,1.77
2023-04-03T01:10:35.514Z,1.77
2023-04-03T01:11:07.618Z,1.72
2023-04-03T01:11:39.277Z,1.72
2023-04-03T01:12:11.342Z,1.72
2023-04-03T01:12:33.813Z,1.72
2023-04-03T01:12:56.200Z,1.61
2023-04-03T01:13:32.383Z,1.61
2023-04-03T01:14:03.335Z,1.61
2023-04-03T01:14:35.534Z,1.61
2023-04-03T01:15:14.992Z,1.61
2023-04-03T01:15:39.993Z,1.61
2023-04-03T01:16:11.266Z,1.61
2023-04-03T01:16:33.816Z,1.61
2023-04-03T01:16:57.199Z,1.61
2023-04-03T01:17:31.406Z,1.50
2023-04-03T01:18:03.657Z,1.50
2023-04-03T01:18:34.964Z,1.50
2023-04-03T01:19:08.056Z,1.50
2023-04-03T01:19:39.937Z,1.50
2023-04-03T01:20:11.651Z,1.50
2023-04-03T01:20:34.710Z,1.50
2023-04-03T01:20:56.964Z,1.50
2023-04-03T01:21:31.065Z,1.50
2023-04-03T01:22:02.905Z,1.50
2023-04-03T01:22:35.182Z,1.50
2023-04-03T01:23:08.790Z,1.50
2023-04-03T01:23:40.485Z,1.38
2023-04-03T01:24:11.533Z,1.38
2023-04-03T01:24:34.001Z,1.38
2023-04-03T01:24:56.966Z,1.38
2023-04-03T01:25:31.661Z,1.38
2023-04-03T01:26:03.550Z,1.38
2023-04-03T01:26:34.970Z,1.38
2023-04-03T01:27:09.853Z,1.38
2023-04-03T01:27:41.482Z,1.38
2023-04-03T01:28:12.841Z,1.38
2023-04-03T01:28:35.152Z,1.38
2023-04-03T01:28:57.576Z,1.27
2023-04-03T01:29:31.013Z,1.27
2023-04-03T01:30:03.156Z,1.27
2023-04-03T01:30:35.358Z,1.27
2023-04-03T01:31:07.004Z,1.27
2023-04-03T01:31:39.136Z,1.27
2023-04-03T01:32:11.223Z,1.27
2023-04-03T01:32:33.847Z,1.27
2023-04-03T01:32:56.346Z,1.27
2023-04-03T01:33:31.500Z,1.27
2023-04-03T01:34:03.830Z,1.27
2023-04-03T01:34:35.003Z,1.27
2023-04-03T01:35:06.948Z,1.27
2023-04-03T01:35:40.564Z,1.27
2023-04-03T01:36:13.140Z,-.22
2023-04-03T01:36:34.659Z,1.38
2023-04-03T01:36:56.940Z,1.38
2023-04-03T01:37:31.025Z,1.38
2023-04-03T01:38:03.440Z,1.38
2023-04-03T01:38:37.965Z,1.38
2023-04-03T01:39:07.185Z,1.38
2023-04-03T01:39:39.600Z,1.38
2023-04-03T01:40:12.518Z,1.38
2023-04-03T01:40:33.922Z,1.38
2023-04-03T01:40:56.450Z,1.38
2023-04-03T01:41:31.144Z,1.38
2023-04-03T01:42:03.761Z,1.38
2023-04-03T01:42:35.159Z,1.38
2023-04-03T01:43:07.732Z,1.38
2023-04-03T01:43:38.948Z,1.38
2023-04-03T01:44:13.083Z,1.38
2023-04-03T01:44:34.056Z,1.38
2023-04-03T01:44:56.312Z,1.38
2023-04-03T01:45:32.135Z,1.38
2023-04-03T01:46:03.064Z,1.38
2023-04-03T01:46:35.826Z,1.38
2023-04-03T01:47:08.253Z,1.27
2023-04-03T01:47:39.384Z,1.27
2023-04-03T01:48:11.322Z,1.27
2023-04-03T01:48:33.562Z,1.27
2023-04-03T01:48:56.517Z,1.27
2023-04-03T01:49:31.473Z,1.27
2023-04-03T01:50:03.372Z,1.27
2023-04-03T01:50:35.227Z,1.27
2023-04-03T01:51:07.640Z,1.27
2023-04-03T01:51:39.405Z,1.27
2023-04-03T01:52:11.597Z,1.27
2023-04-03T01:52:33.767Z,1.27
2023-04-03T01:52:56.204Z,1.22
2023-04-03T01:53:31.769Z,1.22
2023-04-03T01:54:03.665Z,1.22
2023-04-03T01:54:35.892Z,1.22
2023-04-03T01:55:07.080Z,1.22
2023-04-03T01:55:38.983Z,1.22
2023-04-03T01:56:12.154Z,1.22
2023-04-03T01:56:34.631Z,1.22
2023-04-03T01:56:57.568Z,1.22
2023-04-03T01:57:31.372Z,1.22
2023-04-03T01:58:03.759Z,1.22
2023-04-03T01:58:35.014Z,1.22
2023-04-03T01:59:07.101Z,1.22
2023-04-03T01:59:38.853Z,1.22
2023-04-03T02:00:11.230Z,1.11
2023-04-03T02:00:33.960Z,1.11
2023-04-03T02:00:56.142Z,1.11
2023-04-03T02:01:31.940Z,1.11
2023-04-03T02:02:08.397Z,1.11
2023-04-03T02:02:35.606Z,1.11
2023-04-03T02:03:11.283Z,1.11
2023-04-03T02:03:33.941Z,1.11
2023-04-03T02:04:11.276Z,1.00
2023-04-03T02:04:33.792Z,1.00
2023-04-03T02:04:56.232Z,1.00
2023-04-03T02:05:30.999Z,1.00
2023-04-03T02:06:02.819Z,1.00
2023-04-03T02:06:29.107Z,1.00
2023-04-03T02:07:07.407Z,1.00
2023-04-03T02:07:40.228Z,1.00
2023-04-03T02:08:10.987Z,1.00
2023-04-03T02:08:34.116Z,1.00
2023-04-03T02:08:56.039Z,1.11
2023-04-03T02:09:31.578Z,1.11
2023-04-03T02:10:03.614Z,1.11
2023-04-03T02:10:35.299Z,1.11
2023-04-03T02:11:10.573Z,1.11
2023-04-03T02:11:32.954Z,1.11
2023-04-03T02:12:11.390Z,1.11
2023-04-03T02:12:34.656Z,1.00
2023-04-03T02:12:57.147Z,1.00
2023-04-03T02:13:32.355Z,1.00
2023-04-03T02:14:02.934Z,1.00
2023-04-03T02:14:34.979Z,1.00
2023-04-03T02:15:07.053Z,1.00
2023-04-03T02:15:38.881Z,1.00
2023-04-03T02:16:11.291Z,1.00
2023-04-03T02:16:33.723Z,1.00
2023-04-03T02:16:56.139Z,1.11
2023-04-03T02:17:31.452Z,1.11
2023-04-03T02:18:02.967Z,1.11
2023-04-03T02:18:34.980Z,1.11
2023-04-03T02:19:07.233Z,1.11
2023-04-03T02:19:39.098Z,1.11
2023-04-03T02:20:11.095Z,1.00
2023-04-03T02:20:33.761Z,1.00
2023-04-03T02:20:56.143Z,1.00
2023-04-03T02:21:31.008Z,1.00
2023-04-03T02:22:03.672Z,1.00
2023-04-03T02:22:37.549Z,1.00
2023-04-03T02:23:07.369Z,1.00
2023-04-03T02:23:39.220Z,.88
2023-04-03T02:24:10.818Z,.88
2023-04-03T02:24:33.594Z,.88
2023-04-03T02:24:56.009Z,.88
2023-04-03T02:25:31.051Z,.88
2023-04-03T02:26:02.922Z,.77
2023-04-03T02:26:34.805Z,.77
2023-04-03T02:27:06.893Z,.77
2023-04-03T02:27:39.001Z,.77
2023-04-03T02:28:11.308Z,.77
2023-04-03T02:28:33.813Z,.77
2023-04-03T02:28:56.501Z,.77
2023-04-03T02:29:30.941Z,.77
2023-04-03T02:30:03.197Z,.77
2023-04-03T02:30:35.238Z,.77
2023-04-03T02:31:07.007Z,.72
2023-04-03T02:31:38.967Z,.77
2023-04-03T02:32:11.002Z,.77
2023-04-03T02:32:34.919Z,.77
2023-04-03T02:32:57.064Z,.72
2023-04-03T02:33:31.316Z,.72
2023-04-03T02:34:03.012Z,.77
2023-04-03T02:34:34.818Z,.72
2023-04-03T02:35:06.853Z,.72
2023-04-03T02:35:39.477Z,.72
2023-04-03T02:36:11.226Z,.72
2023-04-03T02:36:33.973Z,.72
2023-04-03T02:36:56.531Z,.72
2023-04-03T02:37:30.960Z,.72
2023-04-03T02:38:02.961Z,.61
2023-04-03T02:38:34.939Z,.61
2023-04-03T02:39:06.850Z,.61
2023-04-03T02:39:39.543Z,.61
2023-04-03T02:40:06.451Z,.61
2023-04-03T02:40:39.967Z,.61
2023-04-03T02:41:15.735Z,.61
2023-04-03T02:41:38.380Z,.61
2023-04-03T02:42:00.861Z,.61
2023-04-03T02:42:36.112Z,.61
2023-04-03T02:43:07.258Z,.50
2023-04-03T02:43:39.008Z,.50
2023-04-03T02:44:10.913Z,.50
2023-04-03T02:44:33.694Z,.50
2023-04-03T02:44:58.757Z,.50
2023-04-03T02:45:31.405Z,.50
2023-04-03T02:46:03.647Z,.50
2023-04-03T02:46:35.130Z,.50
2023-04-03T02:47:06.950Z,.50
2023-04-03T02:47:39.189Z,.50
2023-04-03T02:48:11.360Z,.50
2023-04-03T02:48:33.963Z,.50
2023-04-03T02:48:56.501Z,.38
2023-04-03T02:49:31.573Z,.38
2023-04-03T02:50:03.860Z,.38
2023-04-03T02:50:36.084Z,.38
2023-04-03T02:51:07.410Z,.38
2023-04-03T02:51:38.958Z,.38
2023-04-03T02:52:12.444Z,.38
2023-04-03T02:52:33.606Z,.38
2023-04-03T02:52:56.710Z,.38
2023-04-03T02:53:31.796Z,.38
2023-04-03T02:54:03.330Z,.38
2023-04-03T02:54:34.843Z,.38
2023-04-03T02:55:07.094Z,.38
2023-04-03T02:55:39.567Z,.38
2023-04-03T02:56:11.400Z,.38
2023-04-03T02:56:34.090Z,.38
2023-04-03T02:56:56.478Z,.27
2023-04-03T02:57:31.370Z,.27
2023-04-03T02:58:03.028Z,.27
2023-04-03T02:58:36.633Z,.27
2023-04-03T02:59:07.974Z,.27
2023-04-03T02:59:39.617Z,.38
2023-04-03T03:00:12.881Z,.38
2023-04-03T03:00:35.850Z,.38
2023-04-03T03:00:58.954Z,.38
2023-04-03T03:01:31.793Z,.38
2023-04-03T03:02:05.374Z,.27
2023-04-03T03:02:35.381Z,.27
2023-04-03T03:03:07.337Z,.27
2023-04-03T03:03:39.223Z,.27
2023-04-03T03:04:11.556Z,.27
2023-04-03T03:04:34.230Z,.27
2023-04-03T03:04:56.662Z,.27
2023-04-03T03:05:32.432Z,.27
2023-04-03T03:06:03.024Z,.27
2023-04-03T03:06:35.811Z,.27
2023-04-03T03:07:08.501Z,.27
2023-04-03T03:07:40.164Z,.27
2023-04-03T03:08:11.228Z,.27
2023-04-03T03:08:33.818Z,.27
2023-04-03T03:08:56.499Z,.27
2023-04-03T03:09:31.893Z,.27
2023-04-03T03:10:04.979Z,.27
2023-04-03T03:10:33.227Z,.27
2023-04-03T03:11:08.566Z,.27
2023-04-03T03:11:39.838Z,.27
2023-04-03T03:12:11.158Z,.27
2023-04-03T03:12:33.947Z,.27
2023-04-03T03:12:56.336Z,.27
2023-04-03T03:13:31.333Z,.27
2023-04-03T03:14:03.595Z,.27
2023-04-03T03:14:35.350Z,.27
2023-04-03T03:15:06.951Z,.22
2023-04-03T03:15:39.547Z,.22
2023-04-03T03:16:11.615Z,.22
2023-04-03T03:16:34.595Z,.22
2023-04-03T03:16:57.170Z,.22
2023-04-03T03:17:31.996Z,.22
2023-04-03T03:18:03.390Z,.22
2023-04-03T03:18:35.018Z,.22
2023-04-03T03:19:06.872Z,.22
2023-04-03T03:19:39.140Z,.22
2023-04-03T03:20:14.544Z,.11
2023-04-03T03:20:37.390Z,.11
2023-04-03T03:21:15.253Z,.11
2023-04-03T03:21:37.671Z,.11
2023-04-03T03:22:00.404Z,.11
2023-04-03T03:22:34.992Z,.11
2023-04-03T03:23:07.100Z,.11
2023-04-03T03:23:39.007Z,.11
2023-04-03T03:24:11.142Z,.11
2023-04-03T03:24:33.737Z,.11
2023-04-03T03:24:56.043Z,.11
2023-04-03T03:25:31.001Z,.11
2023-04-03T03:26:03.131Z,.11
2023-04-03T03:26:34.848Z,0
2023-04-03T03:27:06.852Z,0
2023-04-03T03:27:39.235Z,0
2023-04-03T03:28:10.896Z,0
2023-04-03T03:28:35.482Z,0
2023-04-03T03:28:57.850Z,0
2023-04-03T03:29:31.029Z,0
2023-04-03T03:30:02.988Z,0
2023-04-03T03:30:40.900Z,0
2023-04-03T03:31:03.348Z,0
2023-04-03T03:31:39.101Z,0
2023-04-03T03:32:10.887Z,0
2023-04-03T03:32:33.708Z,0
2023-04-03T03:32:56.573Z,-.11
2023-04-03T03:33:31.288Z,-.11
2023-04-03T03:34:02.951Z,-.11
2023-04-03T03:34:36.671Z,-.11
2023-04-03T03:35:07.197Z,-.11
2023-04-03T03:35:39.295Z,-.11
2023-04-03T03:36:11.721Z,-.11
2023-04-03T03:36:34.454Z,-.11
2023-04-03T03:36:58.359Z,-.11
2023-04-03T03:37:31.611Z,-.11
2023-04-03T03:38:03.140Z,-.11
2023-04-03T03:38:36.199Z,-.11
2023-04-03T03:39:07.253Z,-.11
2023-04-03T03:39:38.926Z,-.11
2023-04-03T03:40:11.036Z,-.22
2023-04-03T03:40:33.982Z,-.22
2023-04-03T03:40:56.798Z,-.22
2023-04-03T03:41:32.765Z,-.22
2023-04-03T03:42:03.278Z,-.22
2023-04-03T03:42:35.704Z,-.22
2023-04-03T03:43:07.684Z,-.22
2023-04-03T03:43:39.027Z,-.11
2023-04-03T03:44:11.262Z,-.11
2023-04-03T03:44:33.663Z,-.11
2023-04-03T03:44:56.453Z,-.11
2023-04-03T03:45:31.533Z,-.11
2023-04-03T03:46:03.843Z,-.22
2023-04-03T03:46:35.024Z,-.22
2023-04-03T03:47:08.285Z,-.22
2023-04-03T03:47:45.226Z,-.22
2023-04-03T03:48:07.668Z,-.22
2023-04-03T03:48:39.356Z,-.22
2023-04-03T03:49:15.263Z,-.22
2023-04-03T03:49:38.869Z,-.22
2023-04-03T03:50:01.379Z,-.22
2023-04-03T03:50:35.107Z,-.22
2023-04-03T03:51:07.095Z,-.22
2023-04-03T03:51:38.954Z,-.22
2023-04-03T03:52:11.929Z,-.22
2023-04-03T03:52:34.538Z,-.22
2023-04-03T03:52:56.996Z,-.22
2023-04-03T03:53:31.666Z,-.22
2023-04-03T03:54:03.063Z,-.22
2023-04-03T03:54:34.913Z,-.22
2023-04-03T03:55:07.023Z,-.22
2023-04-03T03:55:39.341Z,-.22
2023-04-03T03:56:10.880Z,-.22
2023-04-03T03:56:33.991Z,-.22
2023-04-03T03:56:56.473Z,-.22
2023-04-03T03:57:32.581Z,-.22
2023-04-03T03:58:03.456Z,-.22
2023-04-03T03:58:35.689Z,-.22
2023-04-03T03:59:06.941Z,-.22
2023-04-03T03:59:39.117Z,-.22
2023-04-03T04:00:15.826Z,-.22
2023-04-03T04:00:33.956Z,-.22
2023-04-03T04:00:58.780Z,-.22
2023-04-03T04:01:33.497Z,-.22
2023-04-03T04:02:03.051Z,-.22
2023-04-03T04:02:35.102Z,-.22
2023-04-03T04:03:07.313Z,-.22
2023-04-03T04:03:40.679Z,-.22
2023-04-03T04:04:10.988Z,-.22
2023-04-03T04:04:34.937Z,-.22
2023-04-03T04:04:57.566Z,-.22
2023-04-03T04:05:31.183Z,-.22
2023-04-03T04:06:03.064Z,-.22
2023-04-03T04:06:35.206Z,-.22
2023-04-03T04:07:07.419Z,-.22
2023-04-03T04:07:39.178Z,-.22
2023-04-03T04:08:11.132Z,-.22
2023-04-03T04:08:34.420Z,-.22
2023-04-03T04:08:56.612Z,-.22
2023-04-03T04:09:30.867Z,-.22
2023-04-03T04:10:03.061Z,-.22
2023-04-03T04:10:35.883Z,-.22
2023-04-03T04:11:06.957Z,-.22
2023-04-03T04:11:39.263Z,-.27
2023-04-03T04:12:10.901Z,-.27
2023-04-03T04:12:35.530Z,-.27
2023-04-03T04:12:58.531Z,-.27
2023-04-03T04:13:31.241Z,-.27
2023-04-03T04:14:02.976Z,-.27
2023-04-03T04:14:35.603Z,-.27
2023-04-03T04:15:07.425Z,-.27
2023-04-03T04:15:39.465Z,-.27
2023-04-03T04:16:11.334Z,-.27
2023-04-03T04:16:35.923Z,-.27
2023-04-03T04:16:56.495Z,-.27
2023-04-03T04:17:31.108Z,-.27
2023-04-03T04:18:03.175Z,-.38
2023-04-03T04:18:36.576Z,-.38
2023-04-03T04:19:08.862Z,-.38
2023-04-03T04:19:39.555Z,-.38
2023-04-03T04:20:11.168Z,-.38
2023-04-03T04:20:36.487Z,-.38
2023-04-03T04:20:57.373Z,-.38
2023-04-03T04:21:30.980Z,-.38
2023-04-03T04:22:02.907Z,-.38
2023-04-03T04:22:37.189Z,-.38
2023-04-03T04:23:01.875Z,-.38
2023-04-03T04:23:40.232Z,-.38
2023-04-03T04:24:11.764Z,-.38
2023-04-03T04:24:38.408Z,-.38
2023-04-03T04:24:58.140Z,-.38
2023-04-03T04:25:31.507Z,-.50
2023-04-03T04:26:05.709Z,-.50
2023-04-03T04:26:37.658Z,-.50
2023-04-03T04:27:06.966Z,-.50
2023-04-03T04:27:39.854Z,-.50
2023-04-03T04:28:10.970Z,-.50
2023-04-03T04:28:34.030Z,-.50
2023-04-03T04:28:57.088Z,-.50
2023-04-03T04:29:31.489Z,-.61
2023-04-03T04:30:04.405Z,-.61
2023-04-03T04:30:35.399Z,-.61
2023-04-03T04:31:07.278Z,-.61
2023-04-03T04:31:39.124Z,-.61
2023-04-03T04:32:12.647Z,-.61
2023-04-03T04:32:35.133Z,-.50
2023-04-03T04:32:57.383Z,-.61
2023-04-03T04:33:31.743Z,-.61
2023-04-03T04:34:03.222Z,-.61
2023-04-03T04:34:35.119Z,-.61
2023-04-03T04:35:07.165Z,-.61
2023-04-03T04:35:39.652Z,-.61
2023-04-03T04:36:11.802Z,-.61
2023-04-03T04:36:34.256Z,-.61
2023-04-03T04:36:58.963Z,-.61
2023-04-03T04:37:32.546Z,-.61
2023-04-03T04:38:03.927Z,-.61
2023-04-03T04:38:35.003Z,-.72
2023-04-03T04:39:07.743Z,-.72
2023-04-03T04:39:40.101Z,-.72
2023-04-03T04:40:11.495Z,-.72
2023-04-03T04:40:34.218Z,-.72
2023-04-03T04:40:56.600Z,-.72
2023-04-03T04:41:31.134Z,-.72
2023-04-03T04:42:03.385Z,-.72
2023-04-03T04:42:35.475Z,-.72
2023-04-03T04:43:07.414Z,-.77
2023-04-03T04:43:41.593Z,-.77
2023-04-03T04:44:12.393Z,-.77
2023-04-03T04:44:35.342Z,-.77
2023-04-03T04:44:59.245Z,-.77
2023-04-03T04:45:31.745Z,-.77
2023-04-03T04:46:03.113Z,-.77
2023-04-03T04:46:34.976Z,-.77
2023-04-03T04:47:07.028Z,-.77
2023-04-03T04:47:41.972Z,-.77
2023-04-03T04:48:13.870Z,-.77
2023-04-03T04:48:35.083Z,-.77
2023-04-03T04:48:58.931Z,-.77
2023-04-03T04:49:31.233Z,-.88
2023-04-03T04:50:05.735Z,-.88
2023-04-03T04:50:35.428Z,-.88
2023-04-03T04:51:07.513Z,-.88
2023-04-03T04:51:51.589Z,-.77
2023-04-03T04:52:12.006Z,-.77
2023-04-03T04:52:34.427Z,-.77
2023-04-03T04:52:57.251Z,-.77
2023-04-03T04:53:31.204Z,-.77
2023-04-03T04:54:03.070Z,-.77
2023-04-03T04:54:35.195Z,-.77
2023-04-03T04:55:07.194Z,-.77
2023-04-03T04:55:39.274Z,-.77
2023-04-03T04:56:11.270Z,-.77
2023-04-03T04:56:33.896Z,-.77
2023-04-03T04:56:56.300Z,-.77
2023-04-03T04:57:31.977Z,-.77
2023-04-03T04:58:03.071Z,-.77
2023-04-03T04:58:35.134Z,-.77
2023-04-03T04:59:07.152Z,-.77
2023-04-03T04:59:39.929Z,-.77
2023-04-03T05:00:11.650Z,-.77
2023-04-03T05:00:36.316Z,-.77
2023-04-03T05:00:58.172Z,-.77
2023-04-03T05:01:32.005Z,-.77
2023-04-03T05:02:06.023Z,-.88
2023-04-03T05:02:35.528Z,-.88
2023-04-03T05:03:07.674Z,-.88
2023-04-03T05:03:40.354Z,-.88
2023-04-03T05:04:12.428Z,-.88
2023-04-03T05:04:34.986Z,-.88
2023-04-03T05:04:57.936Z,-.88
2023-04-03T05:05:32.100Z,-.88
2023-04-03T05:06:03.168Z,-.88
2023-04-03T05:06:35.371Z,-.88
2023-04-03T05:07:07.840Z,-.88
2023-04-03T05:07:40.751Z,-.88
2023-04-03T05:08:11.161Z,-.88
2023-04-03T05:08:33.821Z,-.88
2023-04-03T05:08:57.257Z,-.88
2023-04-03T05:09:31.219Z,-.88
2023-04-03T05:10:03.939Z,-.88
2023-04-03T05:10:33.623Z,-.88
2023-04-03T05:11:07.233Z,-.88
2023-04-03T05:11:38.946Z,-1.00
2023-04-03T05:12:11.666Z,-1.00
2023-04-03T05:12:34.296Z,-1.00
2023-04-03T05:12:57.128Z,-1.00
2023-04-03T05:13:32.139Z,-1.00
2023-04-03T05:14:03.370Z,-1.00
2023-04-03T05:14:36.560Z,-.88
2023-04-03T05:15:08.020Z,-.88
2023-04-03T05:15:40.310Z,-.88
2023-04-03T05:16:11.757Z,-.88
2023-04-03T05:16:34.030Z,-.88
2023-04-03T05:16:57.116Z,-.77
2023-04-03T05:17:32.110Z,-.77
2023-04-03T05:18:04.278Z,-.77
2023-04-03T05:18:35.188Z,-.77
2023-04-03T05:19:08.022Z,-.77
2023-04-03T05:19:39.338Z,-.72
2023-04-03T05:20:11.529Z,-.72
2023-04-03T05:20:34.391Z,-.72
2023-04-03T05:20:56.796Z,-.72
2023-04-03T05:21:31.617Z,-.72
2023-04-03T05:22:03.805Z,-.61
2023-04-03T05:22:36.165Z,-.61
2023-04-03T05:23:12.560Z,-.61
2023-04-03T05:23:39.691Z,-.61
2023-04-03T05:24:11.552Z,-.61
2023-04-03T05:24:34.210Z,-.61
2023-04-03T05:24:56.973Z,-.50
2023-04-03T05:25:31.309Z,-.50
2023-04-03T05:26:03.818Z,-.50
2023-04-03T05:26:35.590Z,-.50
2023-04-03T05:27:07.665Z,-.50
2023-04-03T05:27:39.365Z,-.50
2023-04-03T05:28:11.413Z,-.50
2023-04-03T05:28:34.037Z,-.50
2023-04-03T05:28:56.748Z,-.50
2023-04-03T05:29:31.087Z,-.50
2023-04-03T05:30:07.278Z,-.38
2023-04-03T05:30:29.650Z,-.38
2023-04-03T05:31:07.394Z,-.38
2023-04-03T05:31:39.056Z,-.38
2023-04-03T05:32:11.173Z,-.38
2023-04-03T05:32:34.030Z,-.38
2023-04-03T05:32:56.854Z,-.38
2023-04-03T05:33:31.099Z,-.38
2023-04-03T05:34:03.120Z,-.38
2023-04-03T05:34:35.371Z,-.38
2023-04-03T05:35:06.970Z,-.38
2023-04-03T05:35:41.656Z,-.38
2023-04-03T05:36:11.137Z,-.38
2023-04-03T05:36:34.457Z,-.38
2023-04-03T05:36:56.849Z,-.38
2023-04-03T05:37:31.274Z,-.27
2023-04-03T05:38:03.177Z,-.27
2023-04-03T05:38:35.122Z,-.27
2023-04-03T05:39:06.972Z,-.27
2023-04-03T05:39:39.110Z,-.27
2023-04-03T05:40:11.330Z,-.27
2023-04-03T05:40:33.988Z,-.27
2023-04-03T05:40:56.192Z,-.27
2023-04-03T05:41:30.968Z,-.27
2023-04-03T05:42:03.308Z,-.27
2023-04-03T05:42:35.059Z,-.27
2023-04-03T05:43:07.324Z,-.27
2023-04-03T05:43:38.905Z,-.27
2023-04-03T05:44:11.092Z,-.27
2023-04-03T05:44:37.094Z,-.27
2023-04-03T05:44:57.218Z,-.27
2023-04-03T05:45:31.361Z,-.27
2023-04-03T05:46:03.261Z,-.27
2023-04-03T05:46:35.063Z,-.27
2023-04-03T05:47:06.920Z,-.22
2023-04-03T05:47:39.353Z,-.22
2023-04-03T05:48:11.104Z,-.27
2023-04-03T05:48:33.999Z,-.22
2023-04-03T05:48:56.518Z,-.22
2023-04-03T05:49:31.449Z,-.22
2023-04-03T05:50:03.158Z,-.22
2023-04-03T05:50:35.198Z,-.22
2023-04-03T05:51:07.114Z,-.22
2023-04-03T05:51:39.091Z,-.22
2023-04-03T05:52:12.697Z,-.22
2023-04-03T05:52:35.095Z,-.22
2023-04-03T05:52:57.391Z,-.22
2023-04-03T05:53:31.328Z,-.22
2023-04-03T05:54:03.362Z,-.22
2023-04-03T05:54:35.162Z,-.11
2023-04-03T05:55:07.083Z,-.11
2023-04-03T05:55:39.989Z,-.11
2023-04-03T05:56:05.459Z,-.11
2023-04-03T05:56:39.442Z,-.11
2023-04-03T05:57:16.769Z,-.11
2023-04-03T05:57:39.054Z,-.11
2023-04-03T05:58:01.353Z,-.11
2023-04-03T05:58:35.899Z,-.11
2023-04-03T05:59:07.105Z,-.11
2023-04-03T05:59:39.707Z,-.11
2023-04-03T06:00:16.745Z,-.11
2023-04-03T06:00:34.263Z,-.11
2023-04-03T06:00:56.445Z,-.11
2023-04-03T06:01:33.245Z,-.11
2023-04-03T06:02:06.459Z,-.11
2023-04-03T06:02:35.638Z,-.11
2023-04-03T06:03:08.258Z,0
2023-04-03T06:03:40.390Z,0
2023-04-03T06:04:11.555Z,0
2023-04-03T06:04:34.227Z,0
2023-04-03T06:04:57.391Z,0
2023-04-03T06:05:31.150Z,0
2023-04-03T06:06:03.048Z,.11
2023-04-03T06:06:36.578Z,.11
2023-04-03T06:07:07.645Z,.11
2023-04-03T06:07:40.178Z,.11
2023-04-03T06:08:11.401Z,.11
2023-04-03T06:08:34.159Z,.11
2023-04-03T06:08:57.030Z,.11
2023-04-03T06:09:31.090Z,.11
2023-04-03T06:10:12.908Z,.11
2023-04-03T06:10:34.194Z,.11
2023-04-03T06:11:08.371Z,.22
2023-04-03T06:11:39.742Z,.22
2023-04-03T06:12:11.253Z,.22
2023-04-03T06:12:33.851Z,.22
2023-04-03T06:12:56.320Z,.27
2023-04-03T06:13:32.809Z,.27
2023-04-03T06:14:03.276Z,.38
2023-04-03T06:14:35.712Z,.50
2023-04-03T06:15:08.161Z,.61
2023-04-03T06:15:40.143Z,.72
2023-04-03T06:16:11.869Z,.77
2023-04-03T06:16:35.404Z,.77
2023-04-03T06:16:57.337Z,.88
2023-04-03T06:17:31.593Z,.88
2023-04-03T06:18:05.101Z,1.00
2023-04-03T06:18:35.611Z,1.00
2023-04-03T06:19:07.188Z,1.11
2023-04-03T06:19:39.915Z,1.22
2023-04-03T06:20:12.071Z,1.22
2023-04-03T06:20:34.998Z,1.22
2023-04-03T06:20:57.443Z,1.22
2023-04-03T06:21:32.047Z,1.22
2023-04-03T06:22:03.173Z,1.22
2023-04-03T06:22:35.105Z,1.27
2023-04-03T06:23:08.625Z,1.27
2023-04-03T06:23:39.899Z,1.27
2023-04-03T06:24:11.853Z,1.27
2023-04-03T06:24:34.560Z,1.27
2023-04-03T06:24:57.255Z,1.38
2023-04-03T06:25:31.527Z,1.38
2023-04-03T06:26:03.410Z,1.38
2023-04-03T06:26:35.310Z,1.38
2023-04-03T06:27:07.808Z,1.38
2023-04-03T06:27:39.417Z,1.38
2023-04-03T06:28:11.496Z,1.27
2023-04-03T06:28:34.562Z,1.27
2023-04-03T06:28:57.483Z,1.27
2023-04-03T06:29:32.061Z,1.27
2023-04-03T06:30:03.410Z,1.27
2023-04-03T06:30:36.811Z,1.27
2023-04-03T06:31:08.001Z,1.38
2023-04-03T06:31:39.769Z,1.38
2023-04-03T06:32:11.734Z,1.38
2023-04-03T06:32:34.283Z,1.38
2023-04-03T06:32:58.301Z,1.38
2023-04-03T06:33:31.560Z,1.38
2023-04-03T06:34:03.631Z,1.61
2023-04-03T06:34:35.876Z,1.72
2023-04-03T06:35:07.370Z,1.72
2023-04-03T06:35:42.621Z,1.77
2023-04-03T06:36:11.626Z,1.77
2023-04-03T06:36:34.372Z,1.88
2023-04-03T06:36:59.370Z,1.88
2023-04-03T06:37:31.265Z,1.88
2023-04-03T06:38:03.198Z,2.00
2023-04-03T06:38:35.248Z,2.11
2023-04-03T06:39:07.102Z,2.11
2023-04-03T06:39:39.343Z,2.22
2023-04-03T06:40:11.345Z,2.27
2023-04-03T06:40:33.671Z,2.27
2023-04-03T06:40:59.309Z,2.27
2023-04-03T06:41:31.173Z,2.27
2023-04-03T06:42:03.755Z,2.27
2023-04-03T06:42:35.308Z,2.27